HOURLY OBS INDEX

073

Southwest Slopes - north

TEMORA AIRPORT

Site: 073151
Alt: 280.5m
54km WNW of COOTAMUNDRA


  Time     Wind        Temp  DP   Baro     Rain since   Rain past  Vis(m), Cloud(base in m), Weather
  local        km/h                         9am  last   hr   10m    
Sun 04:00    E 20/ 30  17.3 10.4  1025.2    0.0   0.0   0.0   0.0   ----- 
Sun 04:30    E 22/ 32  17.1 10.2  1025.3    0.0   0.0   0.0   0.0   ----- 
Sun 05:00  ENE 19/ 26  17.0  9.7  1025.6    0.0   0.0   0.0   0.0   ----- 
Sun 05:30    E 22/ 32  17.0  8.7  1025.6    0.0   0.0   0.0   0.0   ----- 
Sun 06:00    E 20/ 30  16.9  8.3  1025.9    0.0   0.0   0.0   0.0   ----- 
Sun 06:30    E 28/ 41  16.7  7.9  1026.5    0.0   0.0   0.0   0.0   ----- 
Sun 07:00    E 28/ 41  16.4  8.1  1027.0    0.0   0.0   0.0   0.0   ----- 
Sun 07:30    E 26/ 35  16.7  7.9  1027.5    0.0   0.0   0.0   0.0   ----- 
Sun 08:00    E 26/ 35  17.1  8.0  1028.0    0.0   0.0   0.0   0.0   ----- 
Sun 08:30    E 28/ 39  17.5  7.8  1028.2    0.0   0.0   0.0   0.0   ----- 
Sun 09:00  ENE 24/ 39  18.3  8.0  1028.5    0.0   0.0   0.0   0.0   ----- 
Sun 09:00  ENE 24/ 39  18.3  8.0  1028.5    0.0   0.0  ----   0.0   ----- 
Sun 09:30  ENE 32/ 41  19.2  8.5  1028.6    0.0   0.0   0.0   0.0   ----- 

YOUNG AIRPORT

Site: 073138
Alt: 379.6m
9km NW of YOUNG


  Time     Wind        Temp  DP   Baro     Rain since   Rain past  Vis(m), Cloud(base in m), Weather
  local        km/h                         9am  last   hr   10m    
Sun 04:00  SSE  9/ 17  14.7 10.7  1024.8    0.0   0.0   0.0   0.0   10000 
Sun 04:30  ESE 15/ 24  15.3  9.9  1024.9    0.0   0.0   0.0   0.0   10000 
Sun 05:00  ESE 15/ 28  15.3  9.2  1025.2    0.0   0.0   0.0   0.0   10000 
Sun 05:30  ESE 17/ 32  15.2  9.1  1025.3    0.0   0.0   0.0   0.0   10000 
Sun 06:00    E 22/ 32  14.9  8.2  1025.5    0.0   0.0   0.0   0.0   10000 
Sun 06:30    E 17/ 30  14.6  8.1  1026.0    0.0   0.0   0.0   0.0   10000 
Sun 07:00    E 17/ 28  14.4  7.9  1026.4    0.0   0.0   0.0   0.0   10000 
Sun 07:30  ESE 17/ 35  14.9  8.2  1026.8    0.0   0.0   0.0   0.0   10000 
Sun 08:00    E 19/ 30  15.6  8.4  1027.3    0.0   0.0   0.0   0.0   10000 
Sun 08:30    E 19/ 35  16.5  8.5  1027.7    0.0   0.0   0.0   0.0   10000 
Sun 09:00    E 22/ 35  17.3  8.4  1028.0    0.0   0.0   0.0   0.0   10000 
Sun 09:00    E 22/ 35  17.3  8.4  1028.0    0.0   0.0  ----   0.0   10000 
Sun 09:30    E 20/ 32  18.3  8.3  1028.1    0.0   0.0   0.0   0.0   10000